Time,TemperatureF,DewpointF,PressureIn,WindDirection,WindDirectionDegrees,WindSpeedMPH,WindSpeedGustMPH,Humidity,HourlyPrecipIn,Conditions,Clouds,dailyrainin,SoftwareType,DateUTC
2013-02-20 00:03:00,24.1,18.8,29.81,West,262,9.0,22.0,80,0.00,,,-99.99,Weather View 32 v70,2013-02-20 05:03:00,
2013-02-20 00:08:00,24.4,19.1,29.81,WSW,251,7.0,21.0,80,0.00,,,-99.99,Weather View 32 v70,2013-02-20 05:08:00,
2013-02-20 00:13:00,24.4,18.8,29.80,West,259,4.0,21.0,79,0.00,,,-99.99,Weather View 32 v70,2013-02-20 05:13:00,
2013-02-20 00:23:00,24.2,18.9,29.81,WSW,258,14.0,25.0,80,0.00,,,-99.99,Weather View 32 v70,2013-02-20 05:23:00,
2013-02-20 00:28:00,24.2,18.9,29.81,West,268,9.0,25.0,80,0.00,,,-99.99,Weather View 32 v70,2013-02-20 05:28:00,
2013-02-20 00:33:00,24.1,19.4,29.81,WSW,253,4.0,25.0,82,0.00,,,-99.99,Weather View 32 v70,2013-02-20 05:33:00,
2013-02-20 00:38:00,23.9,18.9,29.80,SW,236,3.0,25.0,81,0.00,,,-99.99,Weather View 32 v70,2013-02-20 05:38:00,
2013-02-20 00:48:00,23.9,18.9,29.81,WSW,255,13.0,25.0,81,0.00,,,-99.99,Weather View 32 v70,2013-02-20 05:48:00,
2013-02-20 00:53:00,23.8,18.8,29.81,West,262,9.0,25.0,81,0.00,,,-99.99,Weather View 32 v70,2013-02-20 05:53:00,
2013-02-20 00:58:00,23.8,18.8,29.81,West,271,9.0,25.0,81,0.00,,,-99.99,Weather View 32 v70,2013-02-20 05:58:00,
2013-02-20 01:03:00,23.9,18.6,29.81,WNW,283,15.0,25.0,80,0.00,,,-99.99,Weather View 32 v70,2013-02-20 06:03:00,
2013-02-20 01:08:00,24.0,18.7,29.81,WNW,284,9.0,25.0,80,0.00,,,-99.99,Weather View 32 v70,2013-02-20 06:08:00,
2013-02-20 01:18:00,24.0,18.4,29.81,West,279,10.0,25.0,79,0.00,,,-99.99,Weather View 32 v70,2013-02-20 06:18:00,
2013-02-20 01:23:00,24.1,18.2,29.81,SW,223,5.0,25.0,78,0.00,,,-99.99,Weather View 32 v70,2013-02-20 06:23:00,
2013-02-20 01:28:00,24.0,18.7,29.81,WNW,291,7.0,25.0,80,0.00,,,-99.99,Weather View 32 v70,2013-02-20 06:28:00,
2013-02-20 01:38:00,23.8,18.5,29.81,West,272,6.0,25.0,80,0.00,,,-99.99,Weather View 32 v70,2013-02-20 06:38:00,
2013-02-20 01:43:00,23.5,18.2,29.81,West,260,6.0,25.0,80,0.00,,,-99.99,Weather View 32 v70,2013-02-20 06:43:00,
2013-02-20 01:53:00,23.4,18.7,29.82,West,267,7.0,25.0,82,0.00,,,-99.99,Weather View 32 v70,2013-02-20 06:53:00,
2013-02-20 01:58:00,23.3,18.3,29.82,West,268,8.0,25.0,81,0.00,,,-99.99,Weather View 32 v70,2013-02-20 06:58:00,
2013-02-20 02:04:00,23.2,18.2,29.82,WNW,283,4.0,25.0,81,0.00,,,-99.99,Weather View 32 v70,2013-02-20 07:04:00,
2013-02-20 02:13:00,23.2,18.2,29.83,WNW,286,4.0,23.0,81,0.00,,,-99.99,Weather View 32 v70,2013-02-20 07:13:00,
2013-02-20 02:18:00,23.3,18.0,29.83,West,266,8.0,23.0,80,0.00,,,-99.99,Weather View 32 v70,2013-02-20 07:18:00,
2013-02-20 02:23:00,23.2,17.9,29.83,West,269,6.0,23.0,80,0.00,,,-99.99,Weather View 32 v70,2013-02-20 07:23:00,
2013-02-20 02:28:00,23.3,18.0,29.83,West,265,4.0,21.0,80,0.00,,,-99.99,Weather View 32 v70,2013-02-20 07:28:00,
2013-02-20 02:38:00,23.2,17.7,29.83,WNW,290,5.0,21.0,79,0.00,,,-99.99,Weather View 32 v70,2013-02-20 07:38:00,
2013-02-20 02:43:00,23.2,17.4,29.83,West,275,13.0,21.0,78,0.00,,,-99.99,Weather View 32 v70,2013-02-20 07:43:00,
2013-02-20 02:48:00,23.1,17.0,29.83,West,275,7.0,21.0,77,0.00,,,-99.99,Weather View 32 v70,2013-02-20 07:48:00,
2013-02-20 02:53:00,23.2,16.8,29.83,WNW,301,11.0,21.0,76,0.00,,,-99.99,Weather View 32 v70,2013-02-20 07:53:00,
2013-02-20 02:58:00,23.1,16.4,29.83,WNW,282,5.0,21.0,75,0.00,,,-99.99,Weather View 32 v70,2013-02-20 07:58:00,
2013-02-20 03:08:00,23.0,15.3,29.83,WNW,287,7.0,21.0,72,0.00,,,-99.99,Weather View 32 v70,2013-02-20 08:08:00,
2013-02-20 03:13:00,23.0,15.3,29.84,WNW,297,7.0,21.0,72,0.00,,,-99.99,Weather View 32 v70,2013-02-20 08:13:00,
2013-02-20 03:18:00,22.9,15.2,29.83,West,269,10.0,18.0,72,0.00,,,-99.99,Weather View 32 v70,2013-02-20 08:18:00,
2013-02-20 03:23:00,23.0,14.7,29.84,WNW,284,8.0,18.0,70,0.00,,,-99.99,Weather View 32 v70,2013-02-20 08:23:00,
2013-02-20 03:28:00,23.0,14.3,29.84,West,272,10.0,18.0,69,0.00,,,-99.99,Weather View 32 v70,2013-02-20 08:28:00,
2013-02-20 03:38:00,22.7,14.4,29.84,WNW,286,11.0,18.0,70,0.00,,,-99.99,Weather View 32 v70,2013-02-20 08:38:00,
2013-02-20 03:43:00,22.6,14.3,29.84,West,279,4.0,18.0,70,0.00,,,-99.99,Weather View 32 v70,2013-02-20 08:43:00,
2013-02-20 03:48:00,22.6,14.3,29.84,WNW,302,7.0,21.0,70,0.00,,,-99.99,Weather View 32 v70,2013-02-20 08:48:00,
2013-02-20 03:53:00,22.4,14.1,29.84,West,273,6.0,21.0,70,0.00,,,-99.99,Weather View 32 v70,2013-02-20 08:53:00,
2013-02-20 04:03:00,22.4,15.4,29.84,WNW,288,9.0,21.0,74,0.00,,,-99.99,Weather View 32 v70,2013-02-20 09:03:00,
2013-02-20 04:08:00,22.2,15.8,29.84,WNW,294,9.0,21.0,76,0.00,,,-99.99,Weather View 32 v70,2013-02-20 09:08:00,
2013-02-20 04:13:00,22.0,15.9,29.85,WNW,293,8.0,21.0,77,0.00,,,-99.99,Weather View 32 v70,2013-02-20 09:13:00,
2013-02-20 04:18:00,22.1,16.3,29.85,West,277,7.0,21.0,78,0.00,,,-99.99,Weather View 32 v70,2013-02-20 09:18:00,
2013-02-20 04:23:00,21.9,16.1,29.85,WNW,284,10.0,21.0,78,0.00,,,-99.99,Weather View 32 v70,2013-02-20 09:23:00,
2013-02-20 04:33:00,21.3,16.1,29.86,WNW,301,12.0,24.0,80,0.00,,,-99.99,Weather View 32 v70,2013-02-20 09:33:00,
2013-02-20 04:38:00,20.9,15.7,29.85,West,274,6.0,24.0,80,0.00,,,-99.99,Weather View 32 v70,2013-02-20 09:38:00,
2013-02-20 04:43:00,20.9,15.7,29.85,West,274,15.0,24.0,80,0.00,,,-99.99,Weather View 32 v70,2013-02-20 09:43:00,
2013-02-20 04:53:00,20.7,15.5,29.85,WSW,257,5.0,24.0,80,0.00,,,-99.99,Weather View 32 v70,2013-02-20 09:53:00,
2013-02-20 05:03:00,20.6,15.4,29.86,West,260,9.0,24.0,80,0.00,,,-99.99,Weather View 32 v70,2013-02-20 10:03:00,
2013-02-20 05:08:00,20.5,15.6,29.86,West,280,6.0,24.0,81,0.00,,,-99.99,Weather View 32 v70,2013-02-20 10:08:00,
2013-02-20 05:18:00,20.1,15.2,29.86,NW,311,3.0,24.0,81,0.00,,,-99.99,Weather View 32 v70,2013-02-20 10:18:00,
2013-02-20 05:28:00,19.8,15.2,29.87,West,265,7.0,22.0,82,0.00,,,-99.99,Weather View 32 v70,2013-02-20 10:28:00,
2013-02-20 05:33:00,19.9,15.3,29.87,West,281,10.0,22.0,82,0.00,,,-99.99,Weather View 32 v70,2013-02-20 10:33:00,
2013-02-20 05:38:00,19.7,15.1,29.87,NW,307,5.0,22.0,82,0.00,,,-99.99,Weather View 32 v70,2013-02-20 10:38:00,
2013-02-20 05:48:00,19.7,15.1,29.87,WNW,292,13.0,22.0,82,0.00,,,-99.99,Weather View 32 v70,2013-02-20 10:48:00,
2013-02-20 05:53:00,19.7,15.1,29.87,West,278,6.0,22.0,82,0.00,,,-99.99,Weather View 32 v70,2013-02-20 10:53:00,
2013-02-20 05:58:00,19.9,15.6,29.87,WNW,285,7.0,20.0,83,0.00,,,-99.99,Weather View 32 v70,2013-02-20 10:58:00,
2013-02-20 06:03:00,19.7,15.4,29.87,WNW,285,5.0,20.0,83,0.00,,,-99.99,Weather View 32 v70,2013-02-20 11:03:00,
2013-02-20 06:08:00,19.9,15.6,29.88,WNW,300,10.0,20.0,83,0.00,,,-99.99,Weather View 32 v70,2013-02-20 11:08:00,
2013-02-20 06:13:00,20.2,15.9,29.88,WNW,294,12.0,20.0,83,0.00,,,-99.99,Weather View 32 v70,2013-02-20 11:13:00,
2013-02-20 06:18:00,20.2,15.9,29.88,WSW,256,7.0,20.0,83,0.00,,,-99.99,Weather View 32 v70,2013-02-20 11:18:00,
2013-02-20 06:28:00,20.4,16.1,29.88,West,268,6.0,20.0,83,0.00,,,-99.99,Weather View 32 v70,2013-02-20 11:28:00,
2013-02-20 06:38:00,20.1,15.5,29.88,NW,304,6.0,18.0,82,0.00,,,-99.99,Weather View 32 v70,2013-02-20 11:38:00,
2013-02-20 06:43:00,20.0,15.4,29.88,WNW,296,8.0,18.0,82,0.00,,,-99.99,Weather View 32 v70,2013-02-20 11:43:00,
2013-02-20 06:48:00,20.0,15.1,29.88,West,270,9.0,18.0,81,0.00,,,-99.99,Weather View 32 v70,2013-02-20 11:48:00,
2013-02-20 06:53:00,20.0,15.1,29.89,NW,305,9.0,18.0,81,0.00,,,-99.99,Weather View 32 v70,2013-02-20 11:53:00,
2013-02-20 06:58:00,20.1,14.9,29.89,WNW,292,8.0,18.0,80,0.00,,,-99.99,Weather View 32 v70,2013-02-20 11:58:00,
2013-02-20 07:03:00,20.4,15.2,29.89,NW,312,12.0,17.0,80,0.00,,,-99.99,Weather View 32 v70,2013-02-20 12:03:00,
2013-02-20 07:13:00,19.8,14.3,29.89,WNW,292,5.0,20.0,79,0.00,,,-99.99,Weather View 32 v70,2013-02-20 12:13:00,
2013-02-20 07:18:00,19.7,14.2,29.89,WNW,296,6.0,20.0,79,0.00,,,-99.99,Weather View 32 v70,2013-02-20 12:18:00,
2013-02-20 07:23:00,19.7,14.0,29.89,West,279,7.0,20.0,78,0.00,,,-99.99,Weather View 32 v70,2013-02-20 12:23:00,
2013-02-20 07:33:00,19.7,14.2,29.90,WNW,294,6.0,20.0,79,0.00,,,-99.99,Weather View 32 v70,2013-02-20 12:33:00,
2013-02-20 07:38:00,19.7,14.2,29.90,WNW,289,9.0,20.0,79,0.00,,,-99.99,Weather View 32 v70,2013-02-20 12:38:00,
2013-02-20 07:43:00,19.8,14.1,29.90,NW,306,5.0,20.0,78,0.00,,,-99.99,Weather View 32 v70,2013-02-20 12:43:00,
2013-02-20 07:48:00,19.9,13.9,29.91,WNW,286,5.0,20.0,77,0.00,,,-99.99,Weather View 32 v70,2013-02-20 12:48:00,
2013-02-20 07:58:00,19.8,13.2,29.90,West,267,5.0,20.0,75,0.00,,,-99.99,Weather View 32 v70,2013-02-20 12:58:00,
2013-02-20 08:07:00,19.9,13.3,29.91,NW,304,10.0,20.0,75,0.00,,,-99.99,Weather View 32 v70,2013-02-20 13:07:00,
2013-02-20 08:13:00,20.0,12.7,29.91,WNW,303,6.0,20.0,73,0.00,,,-99.99,Weather View 32 v70,2013-02-20 13:13:00,
2013-02-20 08:18:00,20.3,12.7,29.91,WNW,302,4.0,18.0,72,0.00,,,-99.99,Weather View 32 v70,2013-02-20 13:18:00,
2013-02-20 08:28:00,20.5,11.9,29.92,WNW,291,6.0,22.0,69,0.00,,,-99.99,Weather View 32 v70,2013-02-20 13:28:00,
2013-02-20 08:33:00,20.5,11.6,29.92,West,279,11.0,22.0,68,0.00,,,-99.99,Weather View 32 v70,2013-02-20 13:33:00,
2013-02-20 08:38:00,20.6,11.0,29.92,West,281,8.0,22.0,66,0.00,,,-99.99,Weather View 32 v70,2013-02-20 13:38:00,
2013-02-20 08:43:00,20.8,10.2,29.92,WNW,286,11.0,22.0,63,0.00,,,-99.99,Weather View 32 v70,2013-02-20 13:43:00,
2013-02-20 08:48:00,20.8,9.5,29.92,WNW,291,6.0,22.0,61,0.00,,,-99.99,Weather View 32 v70,2013-02-20 13:48:00,
2013-02-20 08:58:00,21.1,8.6,29.92,West,263,10.0,22.0,58,0.00,,,-99.99,Weather View 32 v70,2013-02-20 13:58:00,
2013-02-20 09:03:00,21.4,9.3,29.92,NW,308,3.0,22.0,59,0.00,,,-99.99,Weather View 32 v70,2013-02-20 14:03:00,
2013-02-20 09:08:00,21.6,8.7,29.92,WNW,287,7.0,22.0,57,0.00,,,-99.99,Weather View 32 v70,2013-02-20 14:08:00,
2013-02-20 09:18:00,21.6,8.7,29.93,West,278,14.0,22.0,57,0.00,,,-99.99,Weather View 32 v70,2013-02-20 14:18:00,
2013-02-20 09:23:00,21.9,8.6,29.93,WNW,292,6.0,22.0,56,0.00,,,-99.99,Weather View 32 v70,2013-02-20 14:23:00,
2013-02-20 09:28:00,22.5,9.9,29.93,WNW,295,8.0,20.0,58,0.00,,,-99.99,Weather View 32 v70,2013-02-20 14:28:00,
2013-02-20 09:38:00,23.0,10.0,29.93,WNW,296,13.0,25.0,57,0.00,,,-99.99,Weather View 32 v70,2013-02-20 14:38:00,
2013-02-20 09:43:00,22.8,9.8,29.93,West,276,11.0,25.0,57,0.00,,,-99.99,Weather View 32 v70,2013-02-20 14:43:00,
2013-02-20 09:48:00,22.8,9.8,29.93,WSW,255,13.0,25.0,57,0.00,,,-99.99,Weather View 32 v70,2013-02-20 14:48:00,
2013-02-20 09:58:00,22.8,8.6,29.93,West,280,4.0,25.0,54,0.00,,,-99.99,Weather View 32 v70,2013-02-20 14:58:00,
2013-02-20 10:03:00,22.7,9.0,29.94,West,267,7.0,25.0,55,0.00,,,-99.99,Weather View 32 v70,2013-02-20 15:03:00,
2013-02-20 10:08:00,22.4,8.7,29.94,West,278,9.0,25.0,55,0.00,,,-99.99,Weather View 32 v70,2013-02-20 15:08:00,
2013-02-20 10:13:00,22.5,8.4,29.94,West,272,6.0,25.0,54,0.00,,,-99.99,Weather View 32 v70,2013-02-20 15:13:00,
2013-02-20 10:18:00,23.1,8.5,29.94,West,265,8.0,25.0,53,0.00,,,-99.99,Weather View 32 v70,2013-02-20 15:18:00,
2013-02-20 10:28:00,23.3,7.4,29.94,NW,304,5.0,25.0,50,0.00,,,-99.99,Weather View 32 v70,2013-02-20 15:28:00,
2013-02-20 10:33:00,23.3,7.4,29.94,WNW,285,10.0,24.0,50,0.00,,,-99.99,Weather View 32 v70,2013-02-20 15:33:00,
2013-02-20 10:38:00,23.4,8.4,29.94,WNW,292,7.0,24.0,52,0.00,,,-99.99,Weather View 32 v70,2013-02-20 15:38:00,
2013-02-20 10:44:00,23.8,9.2,29.95,WNW,301,5.0,24.0,53,0.00,,,-99.99,Weather View 32 v70,2013-02-20 15:44:00,
2013-02-20 10:53:00,23.7,9.1,29.95,West,262,11.0,24.0,53,0.00,,,-99.99,Weather View 32 v70,2013-02-20 15:53:00,
2013-02-20 10:58:00,23.6,8.5,29.95,WNW,295,13.0,24.0,52,0.00,,,-99.99,Weather View 32 v70,2013-02-20 15:58:00,
2013-02-20 11:09:00,24.3,9.2,29.96,WNW,292,11.0,24.0,52,0.00,,,-99.99,Weather View 32 v70,2013-02-20 16:09:00,
2013-02-20 11:18:00,24.2,8.2,29.96,WNW,294,12.0,25.0,50,0.00,,,-99.99,Weather View 32 v70,2013-02-20 16:18:00,
2013-02-20 11:28:00,24.9,9.3,29.96,WSW,258,11.0,25.0,51,0.00,,,-99.99,Weather View 32 v70,2013-02-20 16:28:00,
2013-02-20 11:33:00,25.1,9.1,29.96,WNW,285,5.0,25.0,50,0.00,,,-99.99,Weather View 32 v70,2013-02-20 16:33:00,
2013-02-20 11:38:00,24.9,8.4,29.96,WNW,292,18.0,25.0,49,0.00,,,-99.99,Weather View 32 v70,2013-02-20 16:38:00,
2013-02-20 11:43:00,24.6,9.0,29.97,WNW,290,11.0,25.0,51,0.00,,,-99.99,Weather View 32 v70,2013-02-20 16:43:00,
2013-02-20 11:53:00,24.5,7.1,29.96,WNW,297,17.0,25.0,47,0.00,,,-99.99,Weather View 32 v70,2013-02-20 16:53:00,
2013-02-20 11:58:00,24.2,7.3,29.97,West,263,4.0,25.0,48,0.00,,,-99.99,Weather View 32 v70,2013-02-20 16:58:00,
2013-02-20 12:03:00,24.8,8.3,29.96,West,278,7.0,25.0,49,0.00,,,-99.99,Weather View 32 v70,2013-02-20 17:03:00,
2013-02-20 12:09:00,25.2,7.3,29.97,WNW,286,12.0,25.0,46,0.00,,,-99.99,Weather View 32 v70,2013-02-20 17:09:00,
2013-02-20 12:18:00,25.3,8.3,29.97,WSW,255,11.0,25.0,48,0.00,,,-99.99,Weather View 32 v70,2013-02-20 17:18:00,
2013-02-20 12:23:00,25.0,7.6,29.97,West,268,6.0,25.0,47,0.00,,,-99.99,Weather View 32 v70,2013-02-20 17:23:00,
2013-02-20 12:29:00,24.6,6.8,29.97,WSW,256,15.0,25.0,46,0.00,,,-99.99,Weather View 32 v70,2013-02-20 17:29:00,
2013-02-20 12:38:00,24.7,7.3,29.97,West,281,4.0,25.0,47,0.00,,,-99.99,Weather View 32 v70,2013-02-20 17:38:00,
2013-02-20 12:48:00,24.8,7.9,29.97,West,273,7.0,25.0,48,0.00,,,-99.99,Weather View 32 v70,2013-02-20 17:48:00,
2013-02-20 12:53:00,24.5,8.1,29.97,WSW,246,11.0,25.0,49,0.00,,,-99.99,Weather View 32 v70,2013-02-20 17:53:00,
2013-02-20 12:58:00,24.5,8.1,29.97,West,270,10.0,25.0,49,0.00,,,-99.99,Weather View 32 v70,2013-02-20 17:58:00,
2013-02-20 13:03:00,24.4,8.9,29.97,West,278,18.0,22.0,51,0.00,,,-99.99,Weather View 32 v70,2013-02-20 18:03:00,
2013-02-20 13:10:00,24.1,9.0,29.97,West,281,6.0,22.0,52,0.00,,,-99.99,Weather View 32 v70,2013-02-20 18:10:00,
2013-02-20 13:18:00,24.1,9.0,29.98,West,268,3.0,22.0,52,0.00,,,-99.99,Weather View 32 v70,2013-02-20 18:18:00,
2013-02-20 13:23:00,24.1,9.0,29.98,West,262,10.0,21.0,52,0.00,,,-99.99,Weather View 32 v70,2013-02-20 18:23:00,
2013-02-20 13:28:00,24.1,9.0,29.98,WNW,296,6.0,20.0,52,0.00,,,-99.99,Weather View 32 v70,2013-02-20 18:28:00,
2013-02-20 13:38:00,24.3,10.0,29.98,WNW,288,14.0,25.0,54,0.00,,,-99.99,Weather View 32 v70,2013-02-20 18:38:00,
2013-02-20 13:43:00,24.5,9.4,29.98,West,268,8.0,25.0,52,0.00,,,-99.99,Weather View 32 v70,2013-02-20 18:43:00,
2013-02-20 13:53:00,24.3,10.0,30.00,WNW,293,6.0,25.0,54,0.00,,,-99.99,Weather View 32 v70,2013-02-20 18:53:00,
2013-02-20 13:58:00,24.1,9.4,30.00,WNW,295,13.0,25.0,53,0.00,,,-99.99,Weather View 32 v70,2013-02-20 18:58:00,
2013-02-20 14:03:00,24.0,9.8,30.00,West,262,4.0,25.0,54,0.00,,,-99.99,Weather View 32 v70,2013-02-20 19:03:00,
2013-02-20 14:08:00,24.2,10.4,30.00,WNW,287,7.0,25.0,55,0.00,,,-99.99,Weather View 32 v70,2013-02-20 19:08:00,
2013-02-20 14:18:00,23.8,9.2,30.01,WNW,294,11.0,25.0,53,0.00,,,-99.99,Weather View 32 v70,2013-02-20 19:18:00,
2013-02-20 14:23:00,24.0,9.8,30.01,West,259,7.0,25.0,54,0.00,,,-99.99,Weather View 32 v70,2013-02-20 19:23:00,
2013-02-20 14:28:00,24.1,9.4,30.01,West,262,9.0,25.0,53,0.00,,,-99.99,Weather View 32 v70,2013-02-20 19:28:00,
2013-02-20 14:38:00,24.3,9.6,30.01,WNW,284,8.0,21.0,53,0.00,,,-99.99,Weather View 32 v70,2013-02-20 19:38:00,
2013-02-20 14:43:00,24.0,9.3,30.01,West,281,8.0,24.0,53,0.00,,,-99.99,Weather View 32 v70,2013-02-20 19:43:00,
2013-02-20 14:48:00,24.1,9.9,30.01,WNW,300,11.0,24.0,54,0.00,,,-99.99,Weather View 32 v70,2013-02-20 19:48:00,
2013-02-20 14:58:00,24.3,10.0,30.02,WSW,258,7.0,24.0,54,0.00,,,-99.99,Weather View 32 v70,2013-02-20 19:58:00,
2013-02-20 15:03:00,24.4,9.7,30.02,West,272,7.0,24.0,53,0.00,,,-99.99,Weather View 32 v70,2013-02-20 20:03:00,
2013-02-20 15:08:00,24.2,9.9,30.02,WNW,282,5.0,24.0,54,0.00,,,-99.99,Weather View 32 v70,2013-02-20 20:08:00,
2013-02-20 15:18:00,24.1,9.0,30.02,West,280,4.0,24.0,52,0.00,,,-99.99,Weather View 32 v70,2013-02-20 20:18:00,
2013-02-20 15:23:00,24.1,9.9,30.02,WNW,283,6.0,24.0,54,0.00,,,-99.99,Weather View 32 v70,2013-02-20 20:23:00,
2013-02-20 15:28:00,24.2,10.4,30.03,West,269,15.0,24.0,55,0.00,,,-99.99,Weather View 32 v70,2013-02-20 20:28:00,
2013-02-20 15:34:00,24.1,9.9,30.03,WSW,253,10.0,24.0,54,0.00,,,-99.99,Weather View 32 v70,2013-02-20 20:34:00,
2013-02-20 15:43:00,24.2,9.9,30.03,West,265,8.0,23.0,54,0.00,,,-99.99,Weather View 32 v70,2013-02-20 20:43:00,
2013-02-20 15:49:00,23.8,8.7,30.03,NW,320,8.0,23.0,52,0.00,,,-99.99,Weather View 32 v70,2013-02-20 20:49:00,
2013-02-20 15:54:00,23.8,10.4,30.03,WNW,283,5.0,23.0,56,0.00,,,-99.99,Weather View 32 v70,2013-02-20 20:54:00,
2013-02-20 16:03:00,23.6,10.6,30.04,WNW,297,7.0,23.0,57,0.00,,,-99.99,Weather View 32 v70,2013-02-20 21:03:00,
2013-02-20 16:08:00,23.4,11.2,30.04,WSW,248,5.0,23.0,59,0.00,,,-99.99,Weather View 32 v70,2013-02-20 21:08:00,
2013-02-20 16:18:00,23.5,10.5,30.05,West,267,12.0,23.0,57,0.00,,,-99.99,Weather View 32 v70,2013-02-20 21:18:00,
2013-02-20 16:23:00,23.4,10.4,30.04,WNW,287,5.0,23.0,57,0.00,,,-99.99,Weather View 32 v70,2013-02-20 21:23:00,
2013-02-20 16:28:00,23.1,10.5,30.05,WNW,287,8.0,23.0,58,0.00,,,-99.99,Weather View 32 v70,2013-02-20 21:28:00,
2013-02-20 16:34:00,23.0,10.0,30.05,West,280,7.0,23.0,57,0.00,,,-99.99,Weather View 32 v70,2013-02-20 21:34:00,
2013-02-20 16:43:00,22.9,9.9,30.05,West,263,11.0,19.0,57,0.00,,,-99.99,Weather View 32 v70,2013-02-20 21:43:00,
2013-02-20 16:48:00,22.8,9.4,30.06,West,278,11.0,19.0,56,0.00,,,-99.99,Weather View 32 v70,2013-02-20 21:48:00,
2013-02-20 16:54:00,22.9,9.9,30.06,West,262,10.0,19.0,57,0.00,,,-99.99,Weather View 32 v70,2013-02-20 21:54:00,
2013-02-20 17:03:00,22.7,9.0,30.07,West,266,5.0,18.0,55,0.00,,,-99.99,Weather View 32 v70,2013-02-20 22:03:00,
2013-02-20 17:08:00,22.5,8.4,30.07,WNW,282,5.0,21.0,54,0.00,,,-99.99,Weather View 32 v70,2013-02-20 22:08:00,
2013-02-20 17:13:00,22.3,8.6,30.07,West,277,5.0,22.0,55,0.00,,,-99.99,Weather View 32 v70,2013-02-20 22:13:00,
2013-02-20 17:19:00,22.3,9.0,30.08,WNW,300,10.0,22.0,56,0.00,,,-99.99,Weather View 32 v70,2013-02-20 22:19:00,
2013-02-20 17:28:00,22.1,8.8,30.08,WNW,286,9.0,22.0,56,0.00,,,-99.99,Weather View 32 v70,2013-02-20 22:28:00,
2013-02-20 17:33:00,21.9,9.0,30.09,WNW,293,4.0,22.0,57,0.00,,,-99.99,Weather View 32 v70,2013-02-20 22:33:00,
2013-02-20 17:39:00,22.0,8.7,30.08,West,270,6.0,22.0,56,0.00,,,-99.99,Weather View 32 v70,2013-02-20 22:39:00,
2013-02-20 17:48:00,21.8,8.5,30.08,West,275,13.0,22.0,56,0.00,,,-99.99,Weather View 32 v70,2013-02-20 22:48:00,
2013-02-20 17:53:00,21.7,8.4,30.09,West,275,13.0,22.0,56,0.00,,,-99.99,Weather View 32 v70,2013-02-20 22:53:00,
2013-02-20 17:59:00,21.8,8.9,30.09,West,272,4.0,22.0,57,0.00,,,-99.99,Weather View 32 v70,2013-02-20 22:59:00,
2013-02-20 18:08:00,21.7,8.8,30.09,West,267,3.0,22.0,57,0.00,,,-99.99,Weather View 32 v70,2013-02-20 23:08:00,
2013-02-20 18:13:00,21.7,9.2,30.09,West,272,6.0,21.0,58,0.00,,,-99.99,Weather View 32 v70,2013-02-20 23:13:00,
2013-02-20 18:18:00,21.6,9.1,30.09,WNW,300,8.0,21.0,58,0.00,,,-99.99,Weather View 32 v70,2013-02-20 23:18:00,
2013-02-20 18:24:00,21.5,8.6,30.10,West,275,11.0,20.0,57,0.00,,,-99.99,Weather View 32 v70,2013-02-20 23:24:00,
2013-02-20 18:33:00,21.3,8.0,30.10,WNW,297,7.0,21.0,56,0.00,,,-99.99,Weather View 32 v70,2013-02-20 23:33:00,
2013-02-20 18:38:00,21.3,8.0,30.10,West,266,6.0,21.0,56,0.00,,,-99.99,Weather View 32 v70,2013-02-20 23:38:00,
2013-02-20 18:43:00,21.3,8.4,30.11,West,275,4.0,21.0,57,0.00,,,-99.99,Weather View 32 v70,2013-02-20 23:43:00,
2013-02-20 18:49:00,21.2,7.6,30.11,WNW,284,7.0,21.0,55,0.00,,,-99.99,Weather View 32 v70,2013-02-20 23:49:00,
2013-02-20 18:54:00,21.1,7.5,30.12,WNW,284,10.0,21.0,55,0.00,,,-99.99,Weather View 32 v70,2013-02-20 23:54:00,
2013-02-20 19:04:00,20.9,8.1,30.12,West,271,5.0,21.0,57,0.00,,,-99.99,Weather View 32 v70,2013-02-21 00:04:00,
2013-02-20 19:09:00,20.9,8.1,30.12,WSW,253,9.0,21.0,57,0.00,,,-99.99,Weather View 32 v70,2013-02-21 00:09:00,
2013-02-20 19:14:00,20.9,8.1,30.12,WNW,285,10.0,21.0,57,0.00,,,-99.99,Weather View 32 v70,2013-02-21 00:14:00,
2013-02-20 19:23:00,20.7,7.9,30.13,West,279,9.0,25.0,57,0.00,,,-99.99,Weather View 32 v70,2013-02-21 00:23:00,
2013-02-20 19:29:00,20.5,8.1,30.13,West,281,6.0,25.0,58,0.00,,,-99.99,Weather View 32 v70,2013-02-21 00:29:00,
2013-02-20 19:34:00,20.5,7.7,30.13,West,280,10.0,25.0,57,0.00,,,-99.99,Weather View 32 v70,2013-02-21 00:34:00,
2013-02-20 19:43:00,20.4,7.6,30.13,WNW,282,4.0,25.0,57,0.00,,,-99.99,Weather View 32 v70,2013-02-21 00:43:00,
2013-02-20 19:49:00,20.3,7.1,30.13,West,265,8.0,25.0,56,0.00,,,-99.99,Weather View 32 v70,2013-02-21 00:49:00,
2013-02-20 19:54:00,20.2,7.4,30.13,West,280,6.0,25.0,57,0.00,,,-99.99,Weather View 32 v70,2013-02-21 00:54:00,
2013-02-20 19:59:00,20.1,6.9,30.12,NW,320,6.0,25.0,56,0.00,,,-99.99,Weather View 32 v70,2013-02-21 00:59:00,
2013-02-20 20:09:00,19.9,7.9,30.13,NW,315,7.0,25.0,59,0.00,,,-99.99,Weather View 32 v70,2013-02-21 01:09:00,
2013-02-20 20:14:00,19.9,7.9,30.13,WNW,299,6.0,25.0,59,0.00,,,-99.99,Weather View 32 v70,2013-02-21 01:14:00,
2013-02-20 20:23:00,19.8,7.0,30.13,NW,315,4.0,24.0,57,0.00,,,-99.99,Weather View 32 v70,2013-02-21 01:23:00,
2013-02-20 20:29:00,19.7,7.3,30.13,WNW,289,5.0,23.0,58,0.00,,,-99.99,Weather View 32 v70,2013-02-21 01:29:00,
2013-02-20 20:38:00,19.6,6.8,30.14,WNW,292,19.0,23.0,57,0.00,,,-99.99,Weather View 32 v70,2013-02-21 01:38:00,
2013-02-20 20:43:00,19.6,6.8,30.14,NW,305,6.0,23.0,57,0.00,,,-99.99,Weather View 32 v70,2013-02-21 01:43:00,
2013-02-20 20:49:00,19.6,7.2,30.14,West,263,4.0,24.0,58,0.00,,,-99.99,Weather View 32 v70,2013-02-21 01:49:00,
2013-02-20 20:58:00,19.4,6.6,30.14,WNW,283,5.0,24.0,57,0.00,,,-99.99,Weather View 32 v70,2013-02-21 01:58:00,
2013-02-20 21:04:00,19.4,7.0,30.14,WNW,291,7.0,24.0,58,0.00,,,-99.99,Weather View 32 v70,2013-02-21 02:04:00,
2013-02-20 21:09:00,19.6,7.6,30.14,West,279,7.0,24.0,59,0.00,,,-99.99,Weather View 32 v70,2013-02-21 02:09:00,
2013-02-20 21:14:00,19.7,7.7,30.14,West,276,4.0,24.0,59,0.00,,,-99.99,Weather View 32 v70,2013-02-21 02:14:00,
2013-02-20 21:23:00,19.7,7.7,30.14,West,280,4.0,24.0,59,0.00,,,-99.99,Weather View 32 v70,2013-02-21 02:23:00,
2013-02-20 21:29:00,19.7,8.1,30.14,West,280,5.0,24.0,60,0.00,,,-99.99,Weather View 32 v70,2013-02-21 02:29:00,
2013-02-20 21:34:00,19.7,7.7,30.14,WSW,255,10.0,24.0,59,0.00,,,-99.99,Weather View 32 v70,2013-02-21 02:34:00,
2013-02-20 21:43:00,19.9,7.9,30.14,West,267,4.0,24.0,59,0.00,,,-99.99,Weather View 32 v70,2013-02-21 02:43:00,
2013-02-20 21:49:00,19.9,7.9,30.14,WNW,287,7.0,22.0,59,0.00,,,-99.99,Weather View 32 v70,2013-02-21 02:49:00,
2013-02-20 21:54:00,19.9,7.9,30.14,West,276,4.0,22.0,59,0.00,,,-99.99,Weather View 32 v70,2013-02-21 02:54:00,
2013-02-20 22:03:00,19.8,7.4,30.14,West,277,8.0,17.0,58,0.00,,,-99.99,Weather View 32 v70,2013-02-21 03:03:00,
2013-02-20 22:09:00,19.9,7.9,30.14,WNW,299,5.0,17.0,59,0.00,,,-99.99,Weather View 32 v70,2013-02-21 03:09:00,
2013-02-20 22:14:00,19.9,7.9,30.14,West,276,5.0,15.0,59,0.00,,,-99.99,Weather View 32 v70,2013-02-21 03:14:00,
2013-02-20 22:19:00,20.0,8.3,30.14,WNW,282,5.0,17.0,60,0.00,,,-99.99,Weather View 32 v70,2013-02-21 03:19:00,
2013-02-20 22:29:00,20.0,8.3,30.13,WNW,285,2.0,17.0,60,0.00,,,-99.99,Weather View 32 v70,2013-02-21 03:29:00,
2013-02-20 22:34:00,20.1,8.4,30.13,WNW,297,11.0,17.0,60,0.00,,,-99.99,Weather View 32 v70,2013-02-21 03:34:00,
2013-02-20 22:39:00,20.1,8.1,30.13,West,267,8.0,17.0,59,0.00,,,-99.99,Weather View 32 v70,2013-02-21 03:39:00,
2013-02-20 22:48:00,20.2,8.5,30.13,WSW,246,2.0,17.0,60,0.00,,,-99.99,Weather View 32 v70,2013-02-21 03:48:00,
2013-02-20 22:54:00,20.4,9.1,30.13,WSW,256,5.0,18.0,61,0.00,,,-99.99,Weather View 32 v70,2013-02-21 03:54:00,
2013-02-20 22:59:00,20.2,8.5,30.13,WNW,291,5.0,18.0,60,0.00,,,-99.99,Weather View 32 v70,2013-02-21 03:59:00,
2013-02-20 23:04:00,20.3,9.0,30.13,West,271,3.0,18.0,61,0.00,,,-99.99,Weather View 32 v70,2013-02-21 04:04:00,
2013-02-20 23:14:00,20.4,9.1,30.12,WSW,254,8.0,18.0,61,0.00,,,-99.99,Weather View 32 v70,2013-02-21 04:14:00,
2013-02-20 23:19:00,20.4,9.1,30.12,West,273,6.0,18.0,61,0.00,,,-99.99,Weather View 32 v70,2013-02-21 04:19:00,
2013-02-20 23:24:00,20.4,9.1,30.12,WSW,246,12.0,18.0,61,0.00,,,-99.99,Weather View 32 v70,2013-02-21 04:24:00,
2013-02-20 23:34:00,20.5,9.2,30.11,WNW,283,6.0,18.0,61,0.00,,,-99.99,Weather View 32 v70,2013-02-21 04:34:00,
2013-02-20 23:39:00,20.5,9.2,30.11,West,275,8.0,18.0,61,0.00,,,-99.99,Weather View 32 v70,2013-02-21 04:39:00,
2013-02-20 23:48:00,20.6,9.6,30.12,West,262,4.0,18.0,62,0.00,,,-99.99,Weather View 32 v70,2013-02-21 04:48:00,
2013-02-20 23:54:00,20.7,9.7,30.11,SW,236,8.0,18.0,62,0.00,,,-99.99,Weather View 32 v70,2013-02-21 04:54:00,
2013-02-20 23:59:00,20.7,9.7,30.11,West,274,7.0,18.0,62,0.00,,,-99.99,Weather View 32 v70,2013-02-21 04:59:00,